sensor_id;sensor_type;location;lat;lon;timestamp;P1;durP1;ratioP1;P2;durP2;ratioP2
59659;SDS011;45534;52.690;6.268;2022-07-04T00:00:05;6.97;;;5.38;;
59659;SDS011;45534;52.690;6.268;2022-07-04T00:02:32;9.18;;;5.95;;
59659;SDS011;45534;52.690;6.268;2022-07-04T00:04:58;9.57;;;7.35;;
59659;SDS011;45534;52.690;6.268;2022-07-04T00:07:24;9.05;;;6.85;;
59659;SDS011;45534;52.690;6.268;2022-07-04T00:09:50;8.18;;;6.50;;
59659;SDS011;45534;52.690;6.268;2022-07-04T00:12:16;8.25;;;6.05;;
59659;SDS011;45534;52.690;6.268;2022-07-04T00:14:42;12.23;;;7.05;;
59659;SDS011;45534;52.690;6.268;2022-07-04T00:17:08;8.63;;;6.22;;
59659;SDS011;45534;52.690;6.268;2022-07-04T00:19:34;8.60;;;5.88;;
59659;SDS011;45534;52.690;6.268;2022-07-04T00:22:00;8.82;;;6.47;;
59659;SDS011;45534;52.690;6.268;2022-07-04T00:24:26;10.70;;;7.63;;
59659;SDS011;45534;52.690;6.268;2022-07-04T00:26:52;8.52;;;5.57;;
59659;SDS011;45534;52.690;6.268;2022-07-04T00:29:17;10.55;;;7.53;;
59659;SDS011;45534;52.690;6.268;2022-07-04T00:31:43;9.50;;;5.25;;
59659;SDS011;45534;52.690;6.268;2022-07-04T00:34:09;8.13;;;6.97;;
59659;SDS011;45534;52.690;6.268;2022-07-04T00:36:35;10.45;;;5.40;;
59659;SDS011;45534;52.690;6.268;2022-07-04T00:39:01;9.02;;;6.15;;
59659;SDS011;45534;52.690;6.268;2022-07-04T00:41:27;8.98;;;6.07;;
59659;SDS011;45534;52.690;6.268;2022-07-04T00:43:59;9.32;;;6.55;;
59659;SDS011;45534;52.690;6.268;2022-07-04T00:46:29;9.27;;;5.65;;
59659;SDS011;45534;52.690;6.268;2022-07-04T00:48:55;7.30;;;5.78;;
59659;SDS011;45534;52.690;6.268;2022-07-04T00:51:21;14.88;;;5.35;;
59659;SDS011;45534;52.690;6.268;2022-07-04T00:53:48;11.48;;;7.65;;
59659;SDS011;45534;52.690;6.268;2022-07-04T00:56:15;7.63;;;5.55;;
59659;SDS011;45534;52.690;6.268;2022-07-04T00:58:41;8.52;;;5.68;;
59659;SDS011;45534;52.690;6.268;2022-07-04T01:01:06;9.98;;;5.45;;
59659;SDS011;45534;52.690;6.268;2022-07-04T01:03:32;8.32;;;5.47;;
59659;SDS011;45534;52.690;6.268;2022-07-04T01:05:58;11.18;;;5.45;;
59659;SDS011;45534;52.690;6.268;2022-07-04T01:08:26;9.30;;;5.15;;
59659;SDS011;45534;52.690;6.268;2022-07-04T01:10:51;8.90;;;6.07;;
59659;SDS011;45534;52.690;6.268;2022-07-04T01:13:21;9.18;;;7.07;;
59659;SDS011;45534;52.690;6.268;2022-07-04T01:15:48;10.98;;;6.00;;
59659;SDS011;45534;52.690;6.268;2022-07-04T01:18:14;10.00;;;4.93;;
59659;SDS011;45534;52.690;6.268;2022-07-04T01:20:40;8.80;;;6.40;;
59659;SDS011;45534;52.690;6.268;2022-07-04T01:23:06;12.43;;;6.65;;
59659;SDS011;45534;52.690;6.268;2022-07-04T01:25:32;16.90;;;7.80;;
59659;SDS011;45534;52.690;6.268;2022-07-04T01:28:00;8.02;;;6.38;;
59659;SDS011;45534;52.690;6.268;2022-07-04T01:30:27;8.95;;;6.45;;
59659;SDS011;45534;52.690;6.268;2022-07-04T01:32:53;8.23;;;5.57;;
59659;SDS011;45534;52.690;6.268;2022-07-04T01:35:20;14.77;;;8.52;;
59659;SDS011;45534;52.690;6.268;2022-07-04T01:37:46;9.20;;;5.70;;
59659;SDS011;45534;52.690;6.268;2022-07-04T01:40:12;14.52;;;7.80;;
59659;SDS011;45534;52.690;6.268;2022-07-04T01:42:38;8.02;;;5.43;;
59659;SDS011;45534;52.690;6.268;2022-07-04T01:45:05;12.88;;;7.63;;
59659;SDS011;45534;52.690;6.268;2022-07-04T01:47:32;15.50;;;8.32;;
59659;SDS011;45534;52.690;6.268;2022-07-04T01:49:58;13.13;;;7.13;;
59659;SDS011;45534;52.690;6.268;2022-07-04T01:52:23;9.13;;;7.28;;
59659;SDS011;45534;52.690;6.268;2022-07-04T01:54:49;12.20;;;6.93;;
59659;SDS011;45534;52.690;6.268;2022-07-04T01:57:15;10.48;;;7.95;;
59659;SDS011;45534;52.690;6.268;2022-07-04T01:59:41;10.27;;;6.53;;
59659;SDS011;45534;52.690;6.268;2022-07-04T02:02:25;7.80;;;6.00;;
59659;SDS011;45534;52.690;6.268;2022-07-04T02:04:51;9.23;;;6.03;;
59659;SDS011;45534;52.690;6.268;2022-07-04T02:07:16;12.77;;;7.88;;
59659;SDS011;45534;52.690;6.268;2022-07-04T02:09:43;10.25;;;7.65;;
59659;SDS011;45534;52.690;6.268;2022-07-04T02:12:08;10.57;;;7.15;;
59659;SDS011;45534;52.690;6.268;2022-07-04T02:14:53;10.95;;;6.03;;
59659;SDS011;45534;52.690;6.268;2022-07-04T02:17:18;9.82;;;7.50;;
59659;SDS011;45534;52.690;6.268;2022-07-04T02:19:44;10.18;;;6.25;;
59659;SDS011;45534;52.690;6.268;2022-07-04T02:22:10;12.25;;;7.10;;
59659;SDS011;45534;52.690;6.268;2022-07-04T02:24:36;11.18;;;6.43;;
59659;SDS011;45534;52.690;6.268;2022-07-04T02:27:02;10.10;;;7.45;;
59659;SDS011;45534;52.690;6.268;2022-07-04T02:29:27;13.55;;;6.57;;
59659;SDS011;45534;52.690;6.268;2022-07-04T02:31:53;8.35;;;5.53;;
59659;SDS011;45534;52.690;6.268;2022-07-04T02:34:19;16.58;;;6.60;;
59659;SDS011;45534;52.690;6.268;2022-07-04T02:36:45;9.73;;;5.78;;
59659;SDS011;45534;52.690;6.268;2022-07-04T02:39:10;8.85;;;5.88;;
59659;SDS011;45534;52.690;6.268;2022-07-04T02:41:36;9.80;;;6.55;;
59659;SDS011;45534;52.690;6.268;2022-07-04T02:44:02;10.73;;;7.32;;
59659;SDS011;45534;52.690;6.268;2022-07-04T02:46:28;9.98;;;6.05;;
59659;SDS011;45534;52.690;6.268;2022-07-04T02:48:53;15.88;;;10.10;;
59659;SDS011;45534;52.690;6.268;2022-07-04T02:51:19;11.27;;;7.88;;
59659;SDS011;45534;52.690;6.268;2022-07-04T02:53:45;14.98;;;10.57;;
59659;SDS011;45534;52.690;6.268;2022-07-04T02:56:11;16.40;;;8.38;;
59659;SDS011;45534;52.690;6.268;2022-07-04T02:58:37;18.40;;;10.88;;
59659;SDS011;45534;52.690;6.268;2022-07-04T03:01:02;22.25;;;12.80;;
59659;SDS011;45534;52.690;6.268;2022-07-04T03:03:28;17.45;;;11.77;;
59659;SDS011;45534;52.690;6.268;2022-07-04T03:05:54;20.55;;;11.82;;
59659;SDS011;45534;52.690;6.268;2022-07-04T03:08:19;23.20;;;12.07;;
59659;SDS011;45534;52.690;6.268;2022-07-04T03:10:45;24.13;;;14.95;;
59659;SDS011;45534;52.690;6.268;2022-07-04T03:13:11;13.60;;;8.85;;
59659;SDS011;45534;52.690;6.268;2022-07-04T03:15:36;15.63;;;12.00;;
59659;SDS011;45534;52.690;6.268;2022-07-04T03:18:02;20.85;;;10.43;;
59659;SDS011;45534;52.690;6.268;2022-07-04T03:20:28;20.05;;;11.35;;
59659;SDS011;45534;52.690;6.268;2022-07-04T03:22:53;15.63;;;9.93;;
59659;SDS011;45534;52.690;6.268;2022-07-04T03:25:19;18.77;;;10.93;;
59659;SDS011;45534;52.690;6.268;2022-07-04T03:27:46;18.08;;;12.70;;
59659;SDS011;45534;52.690;6.268;2022-07-04T03:30:11;29.48;;;12.82;;
59659;SDS011;45534;52.690;6.268;2022-07-04T03:32:37;18.13;;;9.25;;
59659;SDS011;45534;52.690;6.268;2022-07-04T03:35:03;14.70;;;10.88;;
59659;SDS011;45534;52.690;6.268;2022-07-04T03:37:30;14.20;;;8.45;;
59659;SDS011;45534;52.690;6.268;2022-07-04T03:39:56;10.43;;;7.05;;
59659;SDS011;45534;52.690;6.268;2022-07-04T03:42:21;11.80;;;6.32;;
59659;SDS011;45534;52.690;6.268;2022-07-04T03:44:47;19.05;;;12.73;;
59659;SDS011;45534;52.690;6.268;2022-07-04T03:47:13;9.68;;;7.10;;
59659;SDS011;45534;52.690;6.268;2022-07-04T03:49:39;8.95;;;6.28;;
59659;SDS011;45534;52.690;6.268;2022-07-04T03:52:05;11.65;;;6.80;;
59659;SDS011;45534;52.690;6.268;2022-07-04T03:54:31;7.03;;;5.90;;
59659;SDS011;45534;52.690;6.268;2022-07-04T03:56:57;8.80;;;5.75;;
59659;SDS011;45534;52.690;6.268;2022-07-04T03:59:22;9.77;;;5.97;;
59659;SDS011;45534;52.690;6.268;2022-07-04T04:01:48;14.88;;;7.53;;
59659;SDS011;45534;52.690;6.268;2022-07-04T04:04:14;12.60;;;5.93;;
59659;SDS011;45534;52.690;6.268;2022-07-04T04:06:58;6.20;;;5.13;;
59659;SDS011;45534;52.690;6.268;2022-07-04T04:09:24;8.82;;;5.30;;
59659;SDS011;45534;52.690;6.268;2022-07-04T04:11:50;10.23;;;6.25;;
59659;SDS011;45534;52.690;6.268;2022-07-04T04:14:16;10.55;;;7.13;;
59659;SDS011;45534;52.690;6.268;2022-07-04T04:16:42;15.25;;;5.97;;
59659;SDS011;45534;52.690;6.268;2022-07-04T04:19:08;10.50;;;6.25;;
59659;SDS011;45534;52.690;6.268;2022-07-04T04:21:34;16.13;;;8.23;;
59659;SDS011;45534;52.690;6.268;2022-07-04T04:24:00;7.78;;;6.00;;
59659;SDS011;45534;52.690;6.268;2022-07-04T04:26:27;14.82;;;7.22;;
59659;SDS011;45534;52.690;6.268;2022-07-04T04:28:53;8.15;;;5.75;;
59659;SDS011;45534;52.690;6.268;2022-07-04T04:31:19;6.85;;;5.25;;
59659;SDS011;45534;52.690;6.268;2022-07-04T04:33:44;13.15;;;7.30;;
59659;SDS011;45534;52.690;6.268;2022-07-04T04:36:10;6.57;;;4.50;;
59659;SDS011;45534;52.690;6.268;2022-07-04T04:38:36;5.78;;;5.13;;
59659;SDS011;45534;52.690;6.268;2022-07-04T04:41:01;11.13;;;5.55;;
59659;SDS011;45534;52.690;6.268;2022-07-04T04:43:27;9.95;;;5.43;;
59659;SDS011;45534;52.690;6.268;2022-07-04T04:45:53;11.43;;;8.85;;
59659;SDS011;45534;52.690;6.268;2022-07-04T04:48:18;10.35;;;5.72;;
59659;SDS011;45534;52.690;6.268;2022-07-04T04:50:44;9.73;;;5.63;;
59659;SDS011;45534;52.690;6.268;2022-07-04T04:53:11;5.80;;;4.88;;
59659;SDS011;45534;52.690;6.268;2022-07-04T04:55:37;8.10;;;4.82;;
59659;SDS011;45534;52.690;6.268;2022-07-04T04:58:03;7.97;;;5.03;;
59659;SDS011;45534;52.690;6.268;2022-07-04T05:00:29;10.10;;;5.25;;
59659;SDS011;45534;52.690;6.268;2022-07-04T05:02:55;9.90;;;5.13;;
59659;SDS011;45534;52.690;6.268;2022-07-04T05:05:20;11.95;;;4.97;;
59659;SDS011;45534;52.690;6.268;2022-07-04T05:07:46;9.30;;;4.97;;
59659;SDS011;45534;52.690;6.268;2022-07-04T05:10:12;5.30;;;4.13;;
59659;SDS011;45534;52.690;6.268;2022-07-04T05:12:38;10.52;;;5.75;;
59659;SDS011;45534;52.690;6.268;2022-07-04T05:15:03;5.43;;;4.65;;
59659;SDS011;45534;52.690;6.268;2022-07-04T05:17:30;7.57;;;4.93;;
59659;SDS011;45534;52.690;6.268;2022-07-04T05:19:55;9.60;;;4.93;;
59659;SDS011;45534;52.690;6.268;2022-07-04T05:22:21;7.88;;;4.30;;
59659;SDS011;45534;52.690;6.268;2022-07-04T05:24:47;8.95;;;5.75;;
59659;SDS011;45534;52.690;6.268;2022-07-04T05:27:12;5.47;;;4.88;;
59659;SDS011;45534;52.690;6.268;2022-07-04T05:29:38;6.60;;;4.97;;
59659;SDS011;45534;52.690;6.268;2022-07-04T05:32:04;9.57;;;5.65;;
59659;SDS011;45534;52.690;6.268;2022-07-04T05:34:30;7.15;;;5.35;;
59659;SDS011;45534;52.690;6.268;2022-07-04T05:36:56;8.43;;;5.70;;
59659;SDS011;45534;52.690;6.268;2022-07-04T05:39:22;8.10;;;3.88;;
59659;SDS011;45534;52.690;6.268;2022-07-04T05:41:47;11.48;;;5.90;;
59659;SDS011;45534;52.690;6.268;2022-07-04T05:44:13;20.63;;;4.80;;
59659;SDS011;45534;52.690;6.268;2022-07-04T05:46:39;10.00;;;5.40;;
59659;SDS011;45534;52.690;6.268;2022-07-04T05:49:04;11.38;;;5.68;;
59659;SDS011;45534;52.690;6.268;2022-07-04T05:51:30;16.85;;;7.03;;
59659;SDS011;45534;52.690;6.268;2022-07-04T05:53:56;9.07;;;5.25;;
59659;SDS011;45534;52.690;6.268;2022-07-04T05:56:21;9.52;;;5.47;;
59659;SDS011;45534;52.690;6.268;2022-07-04T05:58:48;7.45;;;4.38;;
59659;SDS011;45534;52.690;6.268;2022-07-04T06:01:14;6.95;;;5.05;;
59659;SDS011;45534;52.690;6.268;2022-07-04T06:03:39;12.68;;;5.88;;
59659;SDS011;45534;52.690;6.268;2022-07-04T06:06:05;16.95;;;6.03;;
59659;SDS011;45534;52.690;6.268;2022-07-04T06:08:31;5.30;;;4.53;;
59659;SDS011;45534;52.690;6.268;2022-07-04T06:10:57;11.73;;;5.13;;
59659;SDS011;45534;52.690;6.268;2022-07-04T06:13:23;20.00;;;5.85;;
59659;SDS011;45534;52.690;6.268;2022-07-04T06:15:49;9.27;;;5.35;;
59659;SDS011;45534;52.690;6.268;2022-07-04T06:18:15;9.80;;;5.65;;
59659;SDS011;45534;52.690;6.268;2022-07-04T06:20:41;6.25;;;5.13;;
59659;SDS011;45534;52.690;6.268;2022-07-04T06:23:07;7.55;;;5.00;;
59659;SDS011;45534;52.690;6.268;2022-07-04T06:25:33;6.65;;;5.03;;
59659;SDS011;45534;52.690;6.268;2022-07-04T06:27:59;8.27;;;5.15;;
59659;SDS011;45534;52.690;6.268;2022-07-04T06:30:26;7.00;;;5.05;;
59659;SDS011;45534;52.690;6.268;2022-07-04T06:32:52;13.95;;;6.43;;
59659;SDS011;45534;52.690;6.268;2022-07-04T06:35:20;5.45;;;4.38;;
59659;SDS011;45534;52.690;6.268;2022-07-04T06:38:09;11.20;;;6.95;;
59659;SDS011;45534;52.690;6.268;2022-07-04T06:40:36;10.55;;;5.20;;
59659;SDS011;45534;52.690;6.268;2022-07-04T06:43:02;5.80;;;4.18;;
59659;SDS011;45534;52.690;6.268;2022-07-04T06:45:28;9.98;;;5.30;;
59659;SDS011;45534;52.690;6.268;2022-07-04T06:47:54;9.82;;;4.93;;
59659;SDS011;45534;52.690;6.268;2022-07-04T06:50:21;8.40;;;3.88;;
59659;SDS011;45534;52.690;6.268;2022-07-04T06:52:47;11.65;;;5.80;;
59659;SDS011;45534;52.690;6.268;2022-07-04T06:55:13;7.10;;;5.32;;
59659;SDS011;45534;52.690;6.268;2022-07-04T06:57:39;10.18;;;5.43;;
59659;SDS011;45534;52.690;6.268;2022-07-04T07:00:05;7.00;;;4.30;;
59659;SDS011;45534;52.690;6.268;2022-07-04T07:02:35;10.00;;;6.88;;
59659;SDS011;45534;52.690;6.268;2022-07-04T07:05:01;6.22;;;4.63;;
59659;SDS011;45534;52.690;6.268;2022-07-04T07:07:27;19.00;;;6.15;;
59659;SDS011;45534;52.690;6.268;2022-07-04T07:09:54;17.70;;;6.95;;
59659;SDS011;45534;52.690;6.268;2022-07-04T07:12:23;7.13;;;4.82;;
59659;SDS011;45534;52.690;6.268;2022-07-04T07:14:49;14.63;;;8.02;;
59659;SDS011;45534;52.690;6.268;2022-07-04T07:17:15;9.20;;;6.32;;
59659;SDS011;45534;52.690;6.268;2022-07-04T07:19:42;17.85;;;5.80;;
59659;SDS011;45534;52.690;6.268;2022-07-04T07:22:11;17.90;;;9.68;;
59659;SDS011;45534;52.690;6.268;2022-07-04T07:24:38;13.93;;;8.30;;
59659;SDS011;45534;52.690;6.268;2022-07-04T07:27:04;15.85;;;7.15;;
59659;SDS011;45534;52.690;6.268;2022-07-04T07:29:30;14.18;;;5.32;;
59659;SDS011;45534;52.690;6.268;2022-07-04T07:31:56;12.20;;;5.70;;
59659;SDS011;45534;52.690;6.268;2022-07-04T07:34:22;11.80;;;6.30;;
59659;SDS011;45534;52.690;6.268;2022-07-04T07:36:47;14.60;;;8.23;;
59659;SDS011;45534;52.690;6.268;2022-07-04T07:39:13;7.25;;;4.95;;
59659;SDS011;45534;52.690;6.268;2022-07-04T07:41:39;10.70;;;5.90;;
59659;SDS011;45534;52.690;6.268;2022-07-04T07:44:04;11.90;;;6.70;;
59659;SDS011;45534;52.690;6.268;2022-07-04T07:46:30;11.00;;;6.95;;
59659;SDS011;45534;52.690;6.268;2022-07-04T07:48:56;5.53;;;4.03;;
59659;SDS011;45534;52.690;6.268;2022-07-04T07:51:21;18.92;;;5.75;;
59659;SDS011;45534;52.690;6.268;2022-07-04T07:53:47;19.88;;;6.90;;
59659;SDS011;45534;52.690;6.268;2022-07-04T07:56:12;6.32;;;3.65;;
59659;SDS011;45534;52.690;6.268;2022-07-04T07:58:38;5.03;;;3.42;;
59659;SDS011;45534;52.690;6.268;2022-07-04T08:01:04;8.52;;;3.08;;
59659;SDS011;45534;52.690;6.268;2022-07-04T08:03:30;10.68;;;4.78;;
59659;SDS011;45534;52.690;6.268;2022-07-04T08:06:14;10.18;;;4.55;;
59659;SDS011;45534;52.690;6.268;2022-07-04T08:08:40;12.27;;;5.32;;
59659;SDS011;45534;52.690;6.268;2022-07-04T08:11:07;7.68;;;5.05;;
59659;SDS011;45534;52.690;6.268;2022-07-04T08:13:33;10.43;;;5.38;;
59659;SDS011;45534;52.690;6.268;2022-07-04T08:15:59;16.98;;;3.85;;
59659;SDS011;45534;52.690;6.268;2022-07-04T08:18:25;4.28;;;2.50;;
59659;SDS011;45534;52.690;6.268;2022-07-04T08:20:51;10.00;;;4.85;;
59659;SDS011;45534;52.690;6.268;2022-07-04T08:23:16;8.40;;;4.70;;
59659;SDS011;45534;52.690;6.268;2022-07-04T08:25:42;12.98;;;4.85;;
59659;SDS011;45534;52.690;6.268;2022-07-04T08:28:08;11.98;;;4.50;;
59659;SDS011;45534;52.690;6.268;2022-07-04T08:30:34;5.35;;;3.05;;
59659;SDS011;45534;52.690;6.268;2022-07-04T08:33:00;5.10;;;2.88;;
59659;SDS011;45534;52.690;6.268;2022-07-04T08:35:27;11.27;;;5.05;;
59659;SDS011;45534;52.690;6.268;2022-07-04T08:37:53;13.65;;;4.50;;
59659;SDS011;45534;52.690;6.268;2022-07-04T08:40:24;8.45;;;4.53;;
59659;SDS011;45534;52.690;6.268;2022-07-04T08:42:51;4.50;;;1.95;;
59659;SDS011;45534;52.690;6.268;2022-07-04T08:45:21;3.88;;;2.00;;
59659;SDS011;45534;52.690;6.268;2022-07-04T08:47:52;3.70;;;2.33;;
59659;SDS011;45534;52.690;6.268;2022-07-04T08:50:29;8.40;;;3.97;;
59659;SDS011;45534;52.690;6.268;2022-07-04T08:53:00;7.50;;;3.83;;
59659;SDS011;45534;52.690;6.268;2022-07-04T08:58:13;5.78;;;2.85;;
59659;SDS011;45534;52.690;6.268;2022-07-04T09:00:51;13.48;;;3.53;;
59659;SDS011;45534;52.690;6.268;2022-07-04T09:03:18;5.60;;;3.30;;
59659;SDS011;45534;52.690;6.268;2022-07-04T09:05:44;6.50;;;4.05;;
59659;SDS011;45534;52.690;6.268;2022-07-04T09:08:10;6.85;;;3.63;;
59659;SDS011;45534;52.690;6.268;2022-07-04T09:10:36;8.05;;;3.42;;
59659;SDS011;45534;52.690;6.268;2022-07-04T09:13:03;9.65;;;3.33;;
59659;SDS011;45534;52.690;6.268;2022-07-04T09:15:31;9.85;;;3.60;;
59659;SDS011;45534;52.690;6.268;2022-07-04T09:17:58;9.80;;;3.30;;
59659;SDS011;45534;52.690;6.268;2022-07-04T09:20:24;5.18;;;2.90;;
59659;SDS011;45534;52.690;6.268;2022-07-04T09:22:51;10.45;;;3.22;;
59659;SDS011;45534;52.690;6.268;2022-07-04T09:25:18;7.32;;;3.65;;
59659;SDS011;45534;52.690;6.268;2022-07-04T09:27:49;6.50;;;2.90;;
59659;SDS011;45534;52.690;6.268;2022-07-04T09:30:17;3.53;;;2.50;;
59659;SDS011;45534;52.690;6.268;2022-07-04T09:32:46;6.25;;;2.88;;
59659;SDS011;45534;52.690;6.268;2022-07-04T09:35:19;5.00;;;2.58;;
59659;SDS011;45534;52.690;6.268;2022-07-04T09:37:50;8.93;;;3.17;;
59659;SDS011;45534;52.690;6.268;2022-07-04T09:42:57;4.88;;;2.67;;
59659;SDS011;45534;52.690;6.268;2022-07-04T09:45:35;5.13;;;3.00;;
59659;SDS011;45534;52.690;6.268;2022-07-04T09:48:17;7.20;;;2.55;;
59659;SDS011;45534;52.690;6.268;2022-07-04T09:50:43;4.80;;;2.30;;
59659;SDS011;45534;52.690;6.268;2022-07-04T09:53:08;4.40;;;2.00;;
59659;SDS011;45534;52.690;6.268;2022-07-04T09:55:35;4.40;;;2.38;;
59659;SDS011;45534;52.690;6.268;2022-07-04T09:58:03;3.42;;;2.10;;
59659;SDS011;45534;52.690;6.268;2022-07-04T10:03:20;4.50;;;2.30;;
59659;SDS011;45534;52.690;6.268;2022-07-04T10:06:03;6.95;;;2.75;;
59659;SDS011;45534;52.690;6.268;2022-07-04T10:08:31;3.10;;;2.53;;
59659;SDS011;45534;52.690;6.268;2022-07-04T10:10:57;5.25;;;2.20;;
59659;SDS011;45534;52.690;6.268;2022-07-04T10:13:24;2.97;;;2.15;;
59659;SDS011;45534;52.690;6.268;2022-07-04T10:15:53;2.00;;;1.48;;
59659;SDS011;45534;52.690;6.268;2022-07-04T10:18:19;1.98;;;1.80;;
59659;SDS011;45534;52.690;6.268;2022-07-04T10:20:46;3.70;;;2.00;;
59659;SDS011;45534;52.690;6.268;2022-07-04T10:23:14;4.20;;;2.50;;
59659;SDS011;45534;52.690;6.268;2022-07-04T10:25:40;3.05;;;2.22;;
59659;SDS011;45534;52.690;6.268;2022-07-04T10:28:07;4.03;;;1.85;;
59659;SDS011;45534;52.690;6.268;2022-07-04T10:30:34;5.05;;;2.53;;
59659;SDS011;45534;52.690;6.268;2022-07-04T10:33:05;4.78;;;2.78;;
59659;SDS011;45534;52.690;6.268;2022-07-04T10:35:46;2.65;;;1.88;;
59659;SDS011;45534;52.690;6.268;2022-07-04T10:38:12;4.40;;;2.00;;
59659;SDS011;45534;52.690;6.268;2022-07-04T10:45:55;4.00;;;2.22;;
59659;SDS011;45534;52.690;6.268;2022-07-04T10:48:27;4.78;;;2.25;;
59659;SDS011;45534;52.690;6.268;2022-07-04T10:51:04;5.70;;;2.47;;
59659;SDS011;45534;52.690;6.268;2022-07-04T10:53:32;4.78;;;2.45;;
59659;SDS011;45534;52.690;6.268;2022-07-04T10:58:44;4.43;;;2.10;;
59659;SDS011;45534;52.690;6.268;2022-07-04T11:01:11;2.15;;;1.73;;
59659;SDS011;45534;52.690;6.268;2022-07-04T11:03:45;6.22;;;2.42;;
59659;SDS011;45534;52.690;6.268;2022-07-04T11:17:14;4.65;;;2.00;;
59659;SDS011;45534;52.690;6.268;2022-07-04T11:19:44;2.78;;;1.75;;
59659;SDS011;45534;52.690;6.268;2022-07-04T11:22:10;6.35;;;2.58;;
59659;SDS011;45534;52.690;6.268;2022-07-04T11:24:37;3.92;;;2.30;;
59659;SDS011;45534;52.690;6.268;2022-07-04T11:27:04;2.25;;;1.80;;
59659;SDS011;45534;52.690;6.268;2022-07-04T11:29:33;4.65;;;2.47;;
59659;SDS011;45534;52.690;6.268;2022-07-04T11:31:59;6.50;;;2.67;;
59659;SDS011;45534;52.690;6.268;2022-07-04T11:34:30;5.53;;;2.13;;
59659;SDS011;45534;52.690;6.268;2022-07-04T11:39:23;5.00;;;2.22;;
59659;SDS011;45534;52.690;6.268;2022-07-04T11:41:50;3.00;;;1.90;;
59659;SDS011;45534;52.690;6.268;2022-07-04T11:44:40;3.15;;;2.35;;
59659;SDS011;45534;52.690;6.268;2022-07-04T11:50:05;2.00;;;1.90;;
59659;SDS011;45534;52.690;6.268;2022-07-04T11:55:06;3.53;;;2.60;;
59659;SDS011;45534;52.690;6.268;2022-07-04T11:57:35;5.18;;;2.33;;
59659;SDS011;45534;52.690;6.268;2022-07-04T12:02:31;2.22;;;1.92;;
59659;SDS011;45534;52.690;6.268;2022-07-04T12:05:01;2.92;;;2.60;;
59659;SDS011;45534;52.690;6.268;2022-07-04T12:07:31;2.33;;;1.63;;
59659;SDS011;45534;52.690;6.268;2022-07-04T12:12:33;1.83;;;1.73;;
59659;SDS011;45534;52.690;6.268;2022-07-04T12:15:00;3.42;;;2.15;;
59659;SDS011;45534;52.690;6.268;2022-07-04T12:19:58;3.47;;;1.90;;
59659;SDS011;45534;52.690;6.268;2022-07-04T12:22:26;4.55;;;2.05;;
59659;SDS011;45534;52.690;6.268;2022-07-04T12:24:53;2.63;;;1.75;;
59659;SDS011;45534;52.690;6.268;2022-07-04T12:27:19;2.42;;;2.22;;
59659;SDS011;45534;52.690;6.268;2022-07-04T12:29:48;1.83;;;1.73;;
59659;SDS011;45534;52.690;6.268;2022-07-04T12:32:14;5.35;;;1.98;;
59659;SDS011;45534;52.690;6.268;2022-07-04T12:34:41;3.33;;;2.05;;
59659;SDS011;45534;52.690;6.268;2022-07-04T12:37:10;1.73;;;1.63;;
59659;SDS011;45534;52.690;6.268;2022-07-04T12:39:38;3.38;;;2.58;;
59659;SDS011;45534;52.690;6.268;2022-07-04T12:44:37;3.30;;;1.65;;
59659;SDS011;45534;52.690;6.268;2022-07-04T12:47:03;3.47;;;1.83;;
59659;SDS011;45534;52.690;6.268;2022-07-04T12:49:30;5.20;;;1.63;;
59659;SDS011;45534;52.690;6.268;2022-07-04T12:52:03;4.60;;;1.88;;
59659;SDS011;45534;52.690;6.268;2022-07-04T12:54:30;6.07;;;2.38;;
59659;SDS011;45534;52.690;6.268;2022-07-04T12:57:12;4.22;;;2.03;;
59659;SDS011;45534;52.690;6.268;2022-07-04T12:59:39;1.85;;;1.42;;
59659;SDS011;45534;52.690;6.268;2022-07-04T13:02:07;2.65;;;1.80;;
59659;SDS011;45534;52.690;6.268;2022-07-04T13:04:34;2.22;;;1.65;;
59659;SDS011;45534;52.690;6.268;2022-07-04T13:07:11;1.80;;;1.70;;
59659;SDS011;45534;52.690;6.268;2022-07-04T13:09:39;4.35;;;1.92;;
59659;SDS011;45534;52.690;6.268;2022-07-04T13:12:06;3.38;;;1.50;;
59659;SDS011;45534;52.690;6.268;2022-07-04T13:14:57;2.28;;;1.70;;
59659;SDS011;45534;52.690;6.268;2022-07-04T13:17:24;2.83;;;1.63;;
59659;SDS011;45534;52.690;6.268;2022-07-04T13:19:50;3.22;;;1.60;;
59659;SDS011;45534;52.690;6.268;2022-07-04T13:22:21;1.80;;;1.60;;
59659;SDS011;45534;52.690;6.268;2022-07-04T13:24:48;2.08;;;1.50;;
59659;SDS011;45534;52.690;6.268;2022-07-04T13:27:14;2.70;;;2.00;;
59659;SDS011;45534;52.690;6.268;2022-07-04T13:29:41;1.35;;;1.33;;
59659;SDS011;45534;52.690;6.268;2022-07-04T13:32:07;1.42;;;1.33;;
59659;SDS011;45534;52.690;6.268;2022-07-04T13:34:32;2.20;;;1.67;;
59659;SDS011;45534;52.690;6.268;2022-07-04T13:36:59;1.50;;;1.40;;
59659;SDS011;45534;52.690;6.268;2022-07-04T13:39:25;1.42;;;1.30;;
59659;SDS011;45534;52.690;6.268;2022-07-04T13:41:53;3.47;;;1.80;;
59659;SDS011;45534;52.690;6.268;2022-07-04T13:44:20;2.35;;;1.95;;
59659;SDS011;45534;52.690;6.268;2022-07-04T13:46:45;2.17;;;1.45;;
59659;SDS011;45534;52.690;6.268;2022-07-04T13:49:11;1.80;;;1.42;;
59659;SDS011;45534;52.690;6.268;2022-07-04T13:51:37;2.33;;;1.95;;
59659;SDS011;45534;52.690;6.268;2022-07-04T13:54:04;2.55;;;1.70;;
59659;SDS011;45534;52.690;6.268;2022-07-04T13:56:30;4.85;;;2.53;;
59659;SDS011;45534;52.690;6.268;2022-07-04T13:58:56;2.40;;;1.73;;
59659;SDS011;45534;52.690;6.268;2022-07-04T14:01:23;7.03;;;1.80;;
59659;SDS011;45534;52.690;6.268;2022-07-04T14:03:48;3.58;;;1.80;;
59659;SDS011;45534;52.690;6.268;2022-07-04T14:06:15;2.35;;;1.70;;
59659;SDS011;45534;52.690;6.268;2022-07-04T14:08:42;3.50;;;1.67;;
59659;SDS011;45534;52.690;6.268;2022-07-04T14:11:08;2.72;;;1.70;;
59659;SDS011;45534;52.690;6.268;2022-07-04T14:13:35;4.63;;;2.17;;
59659;SDS011;45534;52.690;6.268;2022-07-04T14:16:05;2.47;;;1.70;;
59659;SDS011;45534;52.690;6.268;2022-07-04T14:18:33;3.10;;;1.52;;
59659;SDS011;45534;52.690;6.268;2022-07-04T14:20:59;2.80;;;1.73;;
59659;SDS011;45534;52.690;6.268;2022-07-04T14:23:25;2.35;;;1.63;;
59659;SDS011;45534;52.690;6.268;2022-07-04T14:26:06;2.40;;;1.42;;
59659;SDS011;45534;52.690;6.268;2022-07-04T14:28:33;2.55;;;1.75;;
59659;SDS011;45534;52.690;6.268;2022-07-04T14:30:59;3.47;;;1.90;;
59659;SDS011;45534;52.690;6.268;2022-07-04T14:33:25;4.70;;;2.63;;
59659;SDS011;45534;52.690;6.268;2022-07-04T14:35:51;1.92;;;1.55;;
59659;SDS011;45534;52.690;6.268;2022-07-04T14:38:17;2.60;;;1.77;;
59659;SDS011;45534;52.690;6.268;2022-07-04T14:40:44;1.90;;;1.73;;
59659;SDS011;45534;52.690;6.268;2022-07-04T14:43:11;1.75;;;1.65;;
59659;SDS011;45534;52.690;6.268;2022-07-04T14:45:38;3.40;;;1.63;;
59659;SDS011;45534;52.690;6.268;2022-07-04T14:48:04;2.55;;;1.95;;
59659;SDS011;45534;52.690;6.268;2022-07-04T14:50:30;9.48;;;2.20;;
59659;SDS011;45534;52.690;6.268;2022-07-04T14:52:56;5.43;;;1.92;;
59659;SDS011;45534;52.690;6.268;2022-07-04T14:55:22;5.18;;;1.85;;
59659;SDS011;45534;52.690;6.268;2022-07-04T14:57:47;2.58;;;1.73;;
59659;SDS011;45534;52.690;6.268;2022-07-04T15:00:13;5.55;;;1.90;;
59659;SDS011;45534;52.690;6.268;2022-07-04T15:02:39;5.30;;;1.70;;
59659;SDS011;45534;52.690;6.268;2022-07-04T15:05:05;3.58;;;1.70;;
59659;SDS011;45534;52.690;6.268;2022-07-04T15:07:32;1.95;;;1.77;;
59659;SDS011;45534;52.690;6.268;2022-07-04T15:09:59;5.45;;;1.92;;
59659;SDS011;45534;52.690;6.268;2022-07-04T15:12:25;4.95;;;1.75;;
59659;SDS011;45534;52.690;6.268;2022-07-04T15:14:50;5.95;;;1.67;;
59659;SDS011;45534;52.690;6.268;2022-07-04T15:17:16;2.50;;;1.42;;
59659;SDS011;45534;52.690;6.268;2022-07-04T15:19:42;3.65;;;2.05;;
59659;SDS011;45534;52.690;6.268;2022-07-04T15:22:27;3.35;;;2.00;;
59659;SDS011;45534;52.690;6.268;2022-07-04T15:25:11;4.10;;;2.42;;
59659;SDS011;45534;52.690;6.268;2022-07-04T15:27:37;3.00;;;1.40;;